• Join FlightAware (Why Join?)
  • Login
  • US Flag 
05:20AM EDT


 

Airport Tracker/Info


-or-


 

Live Flight TrackerFlight Track Log ✈ GLA233 ✈ 21-May-2013 ✈ KPIR - KDEN

Flight Track Log - Related Links

Times and Time Zones

All times are in EDT time to prevent confusion due to time zone crossing. See the GLA233 flight status page for this flight to view local times or setup timezone preferences in your user account.

Time Position Orientation Groundspeed Altitude Reporting Facility
EDT Latitude Longitude Course Direction KTS MPH feet Rate Location/Type
07:24AM 44.3878 -100.2969 252° West 123 142 2,700  Level Minneapolis Center
07:25AM 44.3817 -100.3614 262° West 213 245 4,100 1,560 Climbing Minneapolis Center
07:26AM 44.2454 -100.8589 252° West  Level FlightAware Approximate
07:26AM 44.3478 -100.4297 235° Southwest 214 246 5,900  Level Minneapolis Center
07:27AM 44.2234 -100.9541 252° West  Level FlightAware Approximate
07:27AM 44.3100 -100.4978 232° Southwest 217 250 7,500  Level Minneapolis Center
07:28AM 44.2010 -101.0490 252° West  Level FlightAware Approximate
07:28AM 44.2650 -100.5608 225° Southwest 223 257 9,100  Level Minneapolis Center
07:29AM 44.1784 -101.1439 252° West  Level FlightAware Approximate
07:29AM 44.2194 -100.6272 226° Southwest 230 265 10,500  Level Minneapolis Center
07:30AM 44.1717 -100.6944 225° Southwest 236 272 11,700 1,080 Climbing Minneapolis Center
07:31AM 44.1217 -100.7619 224° Southwest 243 280 12,700 1,020 Climbing Minneapolis Center
07:32AM 44.0689 -100.8275 222° Southwest 249 287 13,800 840 Climbing Minneapolis Center
07:33AM 44.0161 -100.8958 223° Southwest 254 292 14,500 900 Climbing Minneapolis Center
07:34AM 43.9531 -100.9700 220° Southwest 252 290 15,700 960 Climbing Minneapolis Center
07:35AM 43.9061 -101.0381 226° Southwest 248 285 16,500 840 Climbing Minneapolis Center
07:36AM 43.8564 -101.1042 224° Southwest 247 284 17,600 1,200 Climbing Minneapolis Center
07:37AM 43.7958 -101.1881 225° Southwest 252 290 19,200 1,200 Climbing Minneapolis Center
07:38AM 43.7472 -101.2608 227° Southwest 254 292 20,100 840 Climbing Minneapolis Center
07:39AM 43.6997 -101.3331 228° Southwest 254 292 20,900 840 Climbing Minneapolis Center
07:40AM 43.6492 -101.4000 224° Southwest 254 292 21,900 900 Climbing Minneapolis Center
07:41AM 43.6025 -101.4692 227° Southwest 246 283 22,800 720 Climbing Denver Center
07:42AM 43.5481 -101.5308 219° Southwest 253 291 23,400 540 Climbing Denver Center
07:43AM 43.4908 -101.5892 216° Southwest 256 295 23,900 240 Climbing Denver Center
07:44AM 43.4308 -101.6461 215° Southwest 262 302 23,900  Level Denver Center
07:45AM 43.3725 -101.7058 217° Southwest 262 302 24,000  Climbing Denver Center
07:46AM 43.3086 -101.7667 215° Southwest 269 310 24,000  Level Denver Center
07:47AM 43.2514 -101.8239 216° Southwest 266 306 24,000  Level Denver Center
07:48AM 43.1919 -101.8803 215° Southwest 270 311 24,000  Level Denver Center
07:49AM 43.1208 -101.9486 215° Southwest 279 321 24,000  Level Denver Center
07:50AM 43.0625 -102.0108 218° Southwest 278 320 24,000 -60 Level Denver Center
07:51AM 42.9825 -102.0933 217° Southwest 282 325 23,900 -60 Descending Denver Center
07:52AM 42.9228 -102.1553 217° Southwest 282 325 23,900  Level Denver Center
07:53AM 42.8636 -102.2156 217° Southwest 279 321 24,000  Climbing Denver Center
07:54AM 42.8058 -102.2739 217° Southwest 273 314 24,000  Level Denver Center
07:55AM 42.7347 -102.3408 215° Southwest 277 319 24,000  Level Denver Center
07:56AM 42.6753 -102.3958 214° Southwest 272 313 24,000  Level Denver Center
07:57AM 42.6175 -102.4569 218° Southwest 273 314 24,000  Level Denver Center
07:58AM 42.5508 -102.5264 218° Southwest 271 312 24,000  Level Denver Center
07:59AM 42.4942 -102.5872 218° Southwest 270 311 24,000 -60 Level Denver Center
08:00AM 42.4394 -102.6519 221° Southwest 273 314 23,900  Descending Denver Center
08:01AM 42.3861 -102.7203 223° Southwest 274 315 24,000  Climbing Denver Center
08:02AM 42.3261 -102.8011 225° Southwest 273 314 24,000  Level Denver Center
08:03AM 42.2778 -102.8750 229° Southwest 273 314 24,000  Level Denver Center
08:04AM 42.2297 -102.9533 230° Southwest 278 320 24,000  Level Denver Center
08:05AM 42.1842 -103.0289 231° Southwest 277 319 24,000 -60 Level Denver Center
08:06AM 42.1317 -103.1192 232° Southwest 275 316 23,900 -60 Descending Denver Center
08:07AM 42.0842 -103.1947 230° Southwest 275 316 23,900  Level Denver Center
08:08AM 42.0356 -103.2697 229° Southwest 275 316 24,000  Climbing Denver Center
08:09AM 41.9800 -103.3569 229° Southwest 276 318 23,900  Descending Denver Center
08:10AM 41.9319 -103.4325 229° Southwest 275 316 24,000  Climbing Denver Center
08:11AM 41.8628 -103.4722 203° Southwest 287 330 24,000  Level Denver Center
08:12AM 41.7744 -103.4822 185° South 286 329 24,000  Level Denver Center
08:13AM 41.6994 -103.5014 191° South 284 327 24,000  Level Denver Center
08:14AM 41.6256 -103.5183 190° South 282 325 24,000 -60 Level Denver Center
08:15AM 41.5497 -103.5350 189° South 286 329 23,900 -300 Descending Denver Center
08:16AM 41.4617 -103.5472 186° South 285 328 23,400 -600 Descending Denver Center
08:17AM 41.3850 -103.5569 185° South 287 330 22,800 -780 Descending Denver Center
08:18AM 41.3086 -103.5658 185° South 287 330 21,900 -900 Descending Denver Center
08:19AM 41.2164 -103.5722 183° South 295 339 21,000 -840 Descending Denver Center
08:20AM 41.1389 -103.5806 185° South 293 337 20,300 -900 Descending Denver Center
08:21AM 41.0625 -103.5864 183° South 289 333 19,200 -1,500 Descending Denver Center
08:22AM 40.9736 -103.5989 186° South 287 330 17,300 -1,680 Descending Denver Center
08:24AM 40.8989 -103.6119 188° South 283 326 15,900 -720 Descending Denver Center
08:25AM 40.8233 -103.6264 188° South 286 329 15,900  Level Denver Center
08:26AM 40.7319 -103.6442 188° South 293 337 15,900  Level Denver Center
08:27AM 40.6531 -103.6597 189° South 298 343 15,900 -120 Level Denver Center
08:28AM 40.5878 -103.7108 211° Southwest 287 330 15,700 -780 Descending Denver Center
08:29AM 40.5189 -103.7836 219° Southwest 284 327 14,400 -1,140 Descending Denver Center
08:30AM 40.4611 -103.8486 221° Southwest 285 328 13,400 -720 Descending Denver Center
08:31AM 40.4003 -103.9164 220° Southwest 277 319 13,000 -240 Descending Denver Center
08:32AM 40.3478 -103.9800 223° Southwest 260 299 13,000  Level Denver Center
08:33AM 40.2953 -104.0469 224° Southwest 264 304 13,000  Level Denver Center
08:34AM 40.2444 -104.1178 227° Southwest 267 307 13,000 -60 Level Denver Center
08:35AM 40.1925 -104.1853 225° Southwest 264 304 12,900  Descending Denver Center
08:36AM 40.1458 -104.2569 230° Southwest 260 299 13,000  Climbing Denver Center
08:37AM 40.0922 -104.3331 227° Southwest 263 303 13,000 -60 Level Denver Center
08:38AM 40.0425 -104.4011 226° Southwest 262 302 12,900 -60 Descending Denver Center
08:39AM 39.9950 -104.4703 228° Southwest 257 296 12,900 -600 Level Denver Center
08:40AM 39.9461 -104.5369 226° Southwest 256 295 11,800 -900 Descending Denver Center
08:41AM 39.8725 -104.5408 182° South 275 316 11,100 -420 Descending Denver Center
08:42AM 39.7994 -104.5158 165° South 271 312 11,000 -960 Descending Denver Center
08:43AM 39.7183 -104.5111 177° South 270 311 9,200 -1,500 Descending Denver Center
08:44AM 39.6531 -104.5381 198° South 257 296 8,000 -1,020 Descending Denver Center
08:45AM 39.6719 -104.5967 293° West 197 227 7,200 -420 Descending Denver Center
08:46AM 39.7203 -104.6289 333° Northwest 195 224 7,200 -120 Level Denver Center
08:47AM 39.7650 -104.6425 347° North 167 192 7,000 -660 Descending Denver Center
08:48AM 39.8100 -104.6419 North 152 175 5,900 -840 Descending Denver Center
08:49AM 39.8431 -104.6408 North 144 166 5,300 -600 Descending Denver Center
08:51AM 39.8500 -104.6667 316° Northwest  Level FlightAware Approximate